Time;durP1;ratioP1;P1;durP2;ratioP2;P2;SDS_P1;SDS_P2;PMS_P1;PMS_P2;Temp;Humidity;BMP_temperature;BMP_pressure;BME280_temperature;BME280_humidity;BME280_pressure;Samples;Min_cycle;Max_cycle;Signal;HPM_P1;HPM_P2
2023/09/12 00:00:48;;;;;;;4.30;4.30;;;19.60;99.90;;;;;;5055479;28;20863;-67
2023/09/12 00:03:15;;;;;;;4.60;4.60;;;19.70;99.90;;;;;;5065007;28;20451;-67
2023/09/12 00:05:50;;;;;;;4.70;4.70;;;19.80;99.90;;;;;;5064556;28;20470;-67
2023/09/12 00:08:17;;;;;;;4.27;4.27;;;19.80;99.90;;;;;;5065535;28;20493;-66
2023/09/12 00:10:44;;;;;;;4.83;4.83;;;19.90;99.90;;;;;;5068698;28;20455;-66
2023/09/12 00:13:13;;;;;;;8.50;8.40;;;19.80;99.90;;;;;;5056868;28;20935;-66
2023/09/12 00:15:40;;;;;;;9.60;9.40;;;19.80;99.90;;;;;;5067002;28;20803;-67
2023/09/12 00:18:07;;;;;;;9.10;8.90;;;19.70;99.90;;;;;;5068536;28;20458;-66
2023/09/12 00:20:34;;;;;;;8.27;8.17;;;19.70;99.90;;;;;;5064257;28;20474;-66
2023/09/12 00:23:01;;;;;;;9.00;8.80;;;19.50;99.90;;;;;;5066228;28;20455;-66
2023/09/12 00:25:28;;;;;;;7.90;7.80;;;19.50;99.90;;;;;;5061154;28;20533;-67
2023/09/12 00:27:56;;;;;;;7.80;7.70;;;19.40;99.90;;;;;;5057306;28;21049;-67
2023/09/12 00:30:24;;;;;;;7.37;7.27;;;19.30;99.90;;;;;;5062862;28;20530;-67
2023/09/12 00:32:51;;;;;;;7.50;7.40;;;19.30;99.90;;;;;;5057641;28;20471;-67
2023/09/12 00:35:18;;;;;;;7.13;7.03;;;19.20;99.90;;;;;;5068359;28;20455;-67
2023/09/12 00:37:46;;;;;;;6.77;6.67;;;19.30;99.90;;;;;;5068337;28;20459;-67
2023/09/12 00:40:13;;;;;;;7.60;7.50;;;19.20;99.90;;;;;;5056026;28;20476;-67
2023/09/12 00:42:40;;;;;;;14.90;14.20;;;19.20;99.90;;;;;;5065169;28;20458;-66
2023/09/12 00:45:09;;;;;;;16.40;15.50;;;19.20;99.90;;;;;;5058807;28;20483;-67
2023/09/12 00:47:37;;;;;;;17.40;16.40;;;19.10;99.90;;;;;;5059566;28;20993;-66
2023/09/12 00:50:06;;;;;;;17.57;16.57;;;19.10;99.90;;;;;;5058330;28;20472;-67
2023/09/12 00:52:35;;;;;;;17.50;16.50;;;19.00;99.90;;;;;;5067161;28;20474;-66
2023/09/12 00:55:05;;;;;;;17.60;16.60;;;18.90;99.90;;;;;;5068434;28;20459;-67
2023/09/12 00:57:34;;;;;;;17.10;16.20;;;18.90;99.90;;;;;;5056434;28;20806;-66
2023/09/12 01:00:10;;;;;;;17.17;16.27;;;18.80;99.90;;;;;;5066243;28;20458;-66
2023/09/12 01:02:38;;;;;;;16.83;15.93;;;18.80;99.90;;;;;;5063962;28;20567;-67
2023/09/12 01:05:07;;;;;;;16.50;15.70;;;18.80;99.90;;;;;;5057939;28;20451;-66
2023/09/12 01:07:34;;;;;;;16.30;15.50;;;18.70;99.90;;;;;;5064178;28;20909;-66
2023/09/12 01:10:03;;;;;;;16.40;15.60;;;18.70;99.90;;;;;;5068111;28;20470;-66
2023/09/12 01:12:32;;;;;;;16.40;15.60;;;18.60;99.90;;;;;;5060666;28;20459;-67
2023/09/12 01:15:00;;;;;;;15.90;15.20;;;18.70;99.90;;;;;;5050682;28;20499;-66
2023/09/12 01:17:27;;;;;;;15.60;14.90;;;18.70;99.90;;;;;;5054627;28;20452;-67
2023/09/12 01:19:56;;;;;;;16.60;15.80;;;18.70;99.90;;;;;;5065680;28;20897;-66
2023/09/12 01:22:36;;;;;;;16.37;15.60;;;18.70;99.90;;;;;;5071822;28;20546;-66
2023/09/12 01:25:37;;;;;;;16.60;15.80;;;18.70;99.90;;;;;;5059106;28;20474;-65
2023/09/12 01:28:09;;;;;;;16.60;15.80;;;18.80;99.90;;;;;;5032345;28;20506;-65
2023/09/12 01:30:37;;;;;;;16.30;15.60;;;18.70;99.90;;;;;;5087602;28;20461;-65
2023/09/12 01:33:05;;;;;;;16.53;15.73;;;18.70;99.90;;;;;;5084520;28;20449;-65
2023/09/12 01:35:32;;;;;;;16.60;15.80;;;18.70;99.90;;;;;;5090013;28;20463;-66
2023/09/12 01:37:59;;;;;;;16.70;15.90;;;18.60;99.90;;;;;;5085129;28;20466;-67
2023/09/12 01:40:35;;;;;;;16.57;15.77;;;18.60;99.90;;;;;;5090088;28;20450;-65
2023/09/12 01:43:08;;;;;;;17.00;16.20;;;18.60;99.90;;;;;;5078602;28;20477;-65
2023/09/12 01:45:37;;;;;;;16.47;15.77;;;18.60;99.90;;;;;;5078269;28;20462;-66
2023/09/12 01:48:07;;;;;;;15.70;15.00;;;18.60;99.90;;;;;;5091971;28;20930;-66
2023/09/12 01:50:34;;;;;;;15.93;15.23;;;18.60;99.90;;;;;;5083160;28;20450;-66
2023/09/12 01:53:02;;;;;;;15.70;15.00;;;18.60;99.90;;;;;;5091549;28;20545;-67
2023/09/12 01:55:29;;;;;;;15.97;15.27;;;18.50;99.90;;;;;;5091337;28;20464;-66
2023/09/12 01:57:56;;;;;;;15.90;15.20;;;18.60;99.90;;;;;;5091393;28;20457;-66
2023/09/12 02:00:26;;;;;;;15.80;15.10;;;18.60;99.90;;;;;;5080359;28;21065;-67
2023/09/12 02:02:54;;;;;;;15.77;15.07;;;18.60;99.90;;;;;;5089622;28;20493;-66
2023/09/12 02:05:23;;;;;;;16.27;15.57;;;18.60;99.90;;;;;;5078396;28;20482;-66
2023/09/12 02:07:50;;;;;;;15.80;15.10;;;18.60;99.90;;;;;;5088749;28;20566;-65
2023/09/12 02:10:17;;;;;;;15.77;15.07;;;18.60;99.90;;;;;;5080358;28;20511;-66
2023/09/12 02:12:44;;;;;;;15.70;15.00;;;18.70;99.90;;;;;;5086616;28;20957;-66
2023/09/12 02:15:12;;;;;;;16.20;15.50;;;18.70;99.90;;;;;;5085022;28;20847;-66
2023/09/12 02:17:40;;;;;;;15.87;15.17;;;18.70;99.90;;;;;;5086874;28;20450;-66
2023/09/12 02:20:09;;;;;;;15.80;15.10;;;18.80;99.90;;;;;;5081746;28;20476;-67
2023/09/12 02:22:36;;;;;;;15.40;14.80;;;18.80;99.90;;;;;;5088168;28;20851;-66
2023/09/12 02:25:05;;;;;;;15.60;15.00;;;18.80;99.90;;;;;;5079000;28;20954;-66
2023/09/12 02:27:32;;;;;;;15.80;15.10;;;18.70;99.90;;;;;;5078687;28;20493;-65
2023/09/12 02:29:59;;;;;;;16.03;15.33;;;18.60;99.90;;;;;;5083819;28;20482;-66
2023/09/12 02:32:26;;;;;;;15.00;14.40;;;18.70;99.90;;;;;;5084202;28;21202;-66
2023/09/12 02:34:58;;;;;;;14.70;14.20;;;18.70;99.90;;;;;;5090791;28;20487;-67
2023/09/12 02:37:26;;;;;;;15.57;14.97;;;18.50;99.90;;;;;;5084188;28;20458;-67
2023/09/12 02:39:52;;;;;;;15.30;14.70;;;18.50;99.90;;;;;;5077395;28;20549;-67
2023/09/12 02:42:19;;;;;;;15.30;14.70;;;18.60;99.90;;;;;;5082734;28;20464;-67
2023/09/12 02:44:47;;;;;;;15.70;15.10;;;18.60;99.90;;;;;;5085159;28;20955;-66
2023/09/12 02:47:15;;;;;;;15.50;14.90;;;18.50;99.90;;;;;;5090606;28;20458;-66
2023/09/12 02:49:42;;;;;;;15.80;15.20;;;18.50;99.90;;;;;;5081152;28;20532;-66
2023/09/12 02:52:11;;;;;;;16.20;15.50;;;18.40;99.90;;;;;;5084727;28;20449;-66
2023/09/12 02:54:38;;;;;;;15.70;15.10;;;18.40;99.90;;;;;;5090561;28;20482;-66
2023/09/12 02:57:06;;;;;;;16.00;15.40;;;18.50;99.90;;;;;;5087740;28;20458;-67
2023/09/12 02:59:34;;;;;;;16.20;15.50;;;18.50;99.90;;;;;;5083749;28;20462;-65
2023/09/12 03:02:01;;;;;;;16.07;15.40;;;18.50;99.90;;;;;;5077234;28;20473;-66
2023/09/12 03:04:29;;;;;;;16.40;15.70;;;18.40;99.90;;;;;;5080928;28;20485;-66
2023/09/12 03:06:56;;;;;;;16.10;15.40;;;18.40;99.90;;;;;;5077740;28;20484;-66
2023/09/12 03:09:24;;;;;;;16.23;15.53;;;18.40;99.90;;;;;;5089998;28;20478;-66
2023/09/12 03:11:52;;;;;;;15.60;15.00;;;18.40;99.90;;;;;;5079827;28;21186;-66
2023/09/12 03:14:19;;;;;;;16.00;15.30;;;18.50;99.90;;;;;;5087101;28;20876;-67
2023/09/12 03:16:46;;;;;;;16.20;15.50;;;18.60;99.90;;;;;;5078769;28;20462;-67
2023/09/12 03:19:14;;;;;;;15.90;15.20;;;18.60;99.90;;;;;;5083509;28;20470;-65
2023/09/12 03:21:42;;;;;;;16.10;15.40;;;18.60;99.90;;;;;;5087982;28;20465;-66
2023/09/12 03:24:08;;;;;;;16.20;15.50;;;18.50;99.90;;;;;;5089765;28;20504;-66
2023/09/12 03:26:37;;;;;;;16.60;15.90;;;18.50;99.90;;;;;;5084278;28;20466;-66
2023/09/12 03:29:06;;;;;;;16.37;15.67;;;18.50;99.90;;;;;;5085401;28;20502;-67
2023/09/12 03:31:36;;;;;;;16.33;15.63;;;18.50;99.90;;;;;;5078556;28;20459;-66
2023/09/12 03:34:05;;;;;;;16.40;15.70;;;18.60;99.90;;;;;;5078652;28;20512;-67
2023/09/12 03:36:32;;;;;;;16.53;15.83;;;18.60;99.90;;;;;;5079016;28;20822;-66
2023/09/12 03:38:58;;;;;;;15.80;15.10;;;18.60;99.90;;;;;;5083795;28;20461;-67
2023/09/12 03:41:26;;;;;;;16.30;15.60;;;18.60;99.90;;;;;;5084216;28;20463;-66
2023/09/12 03:43:55;;;;;;;16.30;15.60;;;18.70;99.90;;;;;;5077342;28;20474;-67
2023/09/12 03:46:22;;;;;;;16.23;15.53;;;18.70;99.90;;;;;;5076364;28;20455;-65
2023/09/12 03:48:49;;;;;;;16.10;15.40;;;18.60;99.90;;;;;;5089165;28;20485;-66
2023/09/12 03:51:16;;;;;;;15.83;15.23;;;18.60;99.90;;;;;;5079367;28;20469;-65
2023/09/12 03:53:43;;;;;;;16.27;15.57;;;18.50;99.90;;;;;;5075585;28;20463;-65
2023/09/12 03:56:12;;;;;;;15.30;14.70;;;18.50;99.90;;;;;;5078269;28;20451;-65
2023/09/12 03:58:39;;;;;;;16.00;15.30;;;18.50;99.90;;;;;;5081316;28;20890;-65
2023/09/12 04:01:09;;;;;;;16.10;15.40;;;18.50;99.90;;;;;;5080665;28;21115;-65
2023/09/12 04:03:36;;;;;;;15.80;15.20;;;18.50;99.90;;;;;;5077581;28;20454;-65
2023/09/12 04:06:03;;;;;;;15.40;14.80;;;18.60;99.90;;;;;;5085677;28;20458;-66
2023/09/12 04:08:32;;;;;;;15.90;15.30;;;18.50;99.90;;;;;;5085093;28;20485;-65
2023/09/12 04:10:58;;;;;;;16.00;15.30;;;18.50;99.90;;;;;;5081067;28;20504;-67
2023/09/12 04:13:26;;;;;;;16.10;15.40;;;18.50;99.90;;;;;;5076540;28;20459;-65
2023/09/12 04:15:53;;;;;;;15.50;14.90;;;18.60;99.90;;;;;;5072809;28;20470;-66
2023/09/12 04:18:22;;;;;;;15.30;14.70;;;18.60;99.90;;;;;;5072524;28;20466;-66
2023/09/12 04:20:49;;;;;;;14.80;14.30;;;18.60;99.90;;;;;;5086665;28;20478;-66
2023/09/12 04:23:15;;;;;;;14.80;14.30;;;18.60;99.90;;;;;;5089093;28;20819;-66
2023/09/12 04:25:46;;;;;;;15.07;14.53;;;18.60;99.90;;;;;;5082957;28;20462;-65
2023/09/12 04:28:15;;;;;;;14.50;14.00;;;18.60;99.90;;;;;;5078509;28;20490;-66
2023/09/12 04:30:45;;;;;;;14.57;14.07;;;18.50;99.90;;;;;;5092788;28;20528;-67
2023/09/12 04:33:12;;;;;;;15.00;14.50;;;18.50;99.90;;;;;;5096021;28;20833;-66
2023/09/12 04:35:40;;;;;;;15.30;14.70;;;18.60;99.90;;;;;;5078978;28;20465;-66
2023/09/12 04:38:09;;;;;;;15.50;14.90;;;18.60;99.90;;;;;;5082125;28;20466;-66
2023/09/12 04:40:36;;;;;;;15.10;14.50;;;18.50;99.90;;;;;;5088617;28;21023;-65
2023/09/12 04:43:03;;;;;;;15.40;14.80;;;18.60;99.90;;;;;;5082985;28;20462;-65
2023/09/12 04:45:30;;;;;;;15.50;14.90;;;18.50;99.90;;;;;;5080419;28;20949;-65
2023/09/12 04:47:56;;;;;;;15.47;14.87;;;18.50;99.90;;;;;;5086214;28;20485;-66
2023/09/12 04:50:23;;;;;;;15.00;14.50;;;18.50;99.90;;;;;;5088477;28;20961;-65
2023/09/12 04:52:51;;;;;;;15.20;14.60;;;18.50;99.90;;;;;;5088391;28;20461;-67
2023/09/12 04:55:18;;;;;;;15.00;14.50;;;18.50;99.90;;;;;;5077137;28;20469;-66
2023/09/12 04:57:45;;;;;;;14.57;14.07;;;18.50;99.90;;;;;;5086329;28;20798;-66
2023/09/12 05:00:15;;;;;;;14.70;14.20;;;18.60;99.90;;;;;;5088326;28;20765;-66
2023/09/12 05:02:43;;;;;;;14.70;14.20;;;18.60;99.90;;;;;;5070978;28;20869;-67
2023/09/12 05:05:10;;;;;;;14.53;14.03;;;18.70;99.90;;;;;;5075210;28;21479;-66
2023/09/12 05:07:37;;;;;;;14.30;13.80;;;18.90;99.90;;;;;;5086056;28;20544;-65
2023/09/12 05:10:06;;;;;;;13.83;13.43;;;18.90;99.90;;;;;;5074554;28;20525;-66
2023/09/12 05:12:33;;;;;;;13.53;13.13;;;18.90;99.90;;;;;;5068664;28;20459;-66
2023/09/12 05:15:01;;;;;;;13.60;13.20;;;18.90;99.90;;;;;;5079335;28;20552;-66
2023/09/12 05:17:28;;;;;;;13.70;13.30;;;19.00;99.90;;;;;;5088194;28;20829;-66
2023/09/12 05:19:55;;;;;;;12.70;12.30;;;19.00;99.90;;;;;;5086202;28;20486;-66
2023/09/12 05:22:21;;;;;;;12.77;12.37;;;19.00;99.90;;;;;;5081221;28;20465;-67
2023/09/12 05:24:49;;;;;;;14.10;13.60;;;19.00;99.90;;;;;;5087921;28;20454;-65
2023/09/12 05:27:18;;;;;;;13.70;13.20;;;19.10;99.90;;;;;;5078465;28;20535;-67
2023/09/12 05:29:45;;;;;;;10.60;10.40;;;19.10;99.90;;;;;;5080129;28;20513;-67
2023/09/12 05:32:12;;;;;;;9.40;9.20;;;19.00;99.90;;;;;;5078969;28;20469;-67
2023/09/12 05:34:39;;;;;;;8.77;8.67;;;18.90;99.90;;;;;;5080302;28;20463;-68
2023/09/12 05:37:06;;;;;;;8.30;8.20;;;18.80;99.90;;;;;;5076215;28;20465;-68
2023/09/12 05:39:33;;;;;;;9.03;8.93;;;18.90;99.90;;;;;;5076569;28;20446;-68
2023/09/12 05:42:00;;;;;;;9.40;9.20;;;18.90;99.90;;;;;;5070652;28;20470;-66
2023/09/12 05:44:29;;;;;;;9.40;9.20;;;19.00;99.90;;;;;;5074074;28;20466;-67
2023/09/12 05:46:56;;;;;;;9.37;9.17;;;19.00;99.90;;;;;;5082774;28;20473;-66
2023/09/12 05:49:24;;;;;;;9.07;8.97;;;18.90;99.90;;;;;;5076176;28;20477;-66
2023/09/12 05:51:51;;;;;;;7.80;7.70;;;18.80;99.90;;;;;;5080630;28;21026;-67
2023/09/12 05:54:19;;;;;;;7.27;7.17;;;18.80;99.90;;;;;;5082500;28;20508;-66
2023/09/12 05:56:47;;;;;;;7.90;7.80;;;18.70;99.90;;;;;;5078007;28;20953;-66
2023/09/12 05:59:14;;;;;;;8.57;8.47;;;18.70;99.90;;;;;;5078648;28;20556;-68
2023/09/12 06:01:43;;;;;;;7.80;7.70;;;18.80;99.90;;;;;;5077003;28;20474;-67
2023/09/12 06:04:10;;;;;;;8.90;8.80;;;18.80;99.90;;;;;;5080717;28;20987;-67
2023/09/12 06:06:38;;;;;;;8.30;8.20;;;18.80;99.90;;;;;;5072153;28;20463;-67
2023/09/12 06:09:06;;;;;;;8.70;8.60;;;18.80;99.90;;;;;;5082296;28;20474;-66
2023/09/12 06:11:32;;;;;;;8.90;8.80;;;18.90;99.90;;;;;;5073527;28;20469;-66
2023/09/12 06:14:00;;;;;;;8.90;8.80;;;18.90;99.90;;;;;;5079865;28;20457;-67
2023/09/12 06:16:28;;;;;;;9.50;9.30;;;18.90;99.90;;;;;;5084350;28;20466;-67
2023/09/12 06:18:56;;;;;;;8.50;8.40;;;19.00;99.90;;;;;;5073885;28;20509;-67
2023/09/12 06:21:23;;;;;;;9.17;9.03;;;19.00;99.90;;;;;;5083483;28;20465;-67
2023/09/12 06:24:10;;;;;;;9.00;8.90;;;19.00;99.90;;;;;;5082072;28;20808;-68
2023/09/12 06:26:36;;;;;;;9.50;9.30;;;19.00;99.90;;;;;;5080847;28;20527;-67
2023/09/12 06:29:03;;;;;;;9.37;9.17;;;19.00;99.90;;;;;;5076457;28;20497;-68
2023/09/12 06:31:30;;;;;;;9.43;9.23;;;19.10;99.90;;;;;;5073594;28;20466;-68
2023/09/12 06:33:58;;;;;;;9.70;9.50;;;19.10;99.90;;;;;;5079879;28;20455;-66
2023/09/12 06:36:25;;;;;;;9.60;9.40;;;19.10;99.90;;;;;;5084569;28;20951;-65
2023/09/12 06:38:53;;;;;;;9.60;9.40;;;19.10;99.90;;;;;;5085091;28;20458;-66
2023/09/12 06:41:21;;;;;;;9.30;9.10;;;19.10;99.90;;;;;;5086180;28;20837;-67
2023/09/12 06:43:48;;;;;;;9.30;9.10;;;19.10;99.90;;;;;;5086162;28;20782;-68
2023/09/12 06:46:17;;;;;;;8.67;8.57;;;19.10;99.90;;;;;;5074999;28;20467;-67
2023/09/12 06:48:45;;;;;;;9.37;9.17;;;19.20;99.90;;;;;;5077846;28;20756;-66
2023/09/12 06:51:15;;;;;;;9.80;9.60;;;19.20;99.90;;;;;;5081453;28;21099;-67
2023/09/12 06:53:42;;;;;;;10.20;10.00;;;19.30;99.90;;;;;;5087073;28;20469;-67
2023/09/12 06:56:09;;;;;;;8.80;8.70;;;19.40;99.90;;;;;;5084459;28;20462;-66
2023/09/12 06:58:36;;;;;;;8.97;8.87;;;19.40;99.90;;;;;;5077629;28;20461;-66
2023/09/12 07:01:06;;;;;;;8.80;8.70;;;19.40;99.90;;;;;;5085157;28;20553;-67
2023/09/12 07:03:33;;;;;;;8.50;8.40;;;19.50;99.90;;;;;;5078719;28;20821;-68
2023/09/12 07:06:01;;;;;;;9.20;9.00;;;19.60;99.90;;;;;;5071201;28;21031;-67
2023/09/12 07:08:31;;;;;;;9.63;9.43;;;19.70;99.90;;;;;;5083468;28;20468;-67
2023/09/12 07:10:59;;;;;;;9.60;9.40;;;19.70;99.90;;;;;;5082369;28;20496;-67
2023/09/12 07:13:27;;;;;;;9.40;9.20;;;19.80;99.90;;;;;;5077975;28;20455;-68
2023/09/12 07:15:57;;;;;;;10.20;10.00;;;19.90;99.90;;;;;;5077996;28;20827;-66
2023/09/12 07:18:24;;;;;;;9.73;9.53;;;20.00;99.90;;;;;;5067050;28;21016;-67
2023/09/12 07:20:58;;;;;;;9.30;9.10;;;20.00;99.90;;;;;;5080051;28;20466;-66
2023/09/12 07:23:25;;;;;;;10.00;9.80;;;20.00;99.90;;;;;;5074056;28;20988;-67
2023/09/12 07:25:57;;;;;;;10.10;9.90;;;20.00;99.90;;;;;;5066959;28;20469;-66
2023/09/12 07:28:24;;;;;;;9.83;9.63;;;20.00;99.90;;;;;;5078154;28;20492;-66
2023/09/12 07:30:51;;;;;;;10.80;10.60;;;20.00;99.90;;;;;;5069565;28;20493;-67
2023/09/12 07:33:18;;;;;;;10.47;10.27;;;20.00;99.90;;;;;;5079057;28;20461;-67
2023/09/12 07:35:46;;;;;;;9.90;9.70;;;20.00;99.90;;;;;;5077896;28;20458;-66
2023/09/12 07:38:15;;;;;;;9.30;9.10;;;20.00;99.90;;;;;;5078970;28;20563;-66
2023/09/12 07:40:42;;;;;;;9.37;9.17;;;20.10;99.90;;;;;;5083165;28;20463;-67
2023/09/12 07:43:10;;;;;;;9.90;9.70;;;20.00;99.90;;;;;;5078477;28;20545;-67
2023/09/12 07:45:38;;;;;;;10.10;9.90;;;20.10;99.90;;;;;;5080589;28;20969;-66
2023/09/12 07:48:06;;;;;;;9.90;9.70;;;20.10;99.90;;;;;;5077678;28;20477;-67
2023/09/12 07:50:33;;;;;;;10.10;9.90;;;20.20;99.90;;;;;;5066717;28;20483;-65
2023/09/12 07:53:00;;;;;;;9.80;9.60;;;20.20;99.90;;;;;;5082900;28;20450;-66
2023/09/12 07:55:30;;;;;;;9.93;9.73;;;20.10;99.90;;;;;;5085938;28;20458;-66
2023/09/12 07:57:58;;;;;;;9.57;9.37;;;20.20;99.90;;;;;;5085601;28;20552;-66
2023/09/12 08:00:27;;;;;;;9.70;9.50;;;20.30;99.90;;;;;;5077609;28;20837;-66
2023/09/12 08:02:55;;;;;;;8.23;8.13;;;20.30;99.90;;;;;;5083714;28;20458;-67
2023/09/12 08:05:22;;;;;;;7.60;7.50;;;20.40;99.90;;;;;;5071739;28;20462;-66
2023/09/12 08:07:50;;;;;;;6.70;6.60;;;20.50;99.90;;;;;;5084063;28;20495;-67
2023/09/12 08:10:17;;;;;;;6.53;6.43;;;20.50;99.90;;;;;;5068344;28;20490;-68
2023/09/12 08:12:44;;;;;;;6.60;6.50;;;20.50;99.90;;;;;;5078791;28;20461;-66
2023/09/12 08:15:11;;;;;;;6.00;5.90;;;20.40;99.90;;;;;;5085806;28;20451;-67
2023/09/12 08:17:39;;;;;;;5.60;5.50;;;20.40;99.90;;;;;;5084191;28;20991;-67
2023/09/12 08:20:09;;;;;;;6.50;6.40;;;20.50;99.90;;;;;;5066837;28;20470;-67
2023/09/12 08:22:36;;;;;;;6.80;6.70;;;20.80;99.90;;;;;;5075353;28;20458;-66
2023/09/12 08:25:04;;;;;;;6.90;6.80;;;21.00;99.90;;;;;;5084916;28;20446;-67
2023/09/12 08:27:31;;;;;;;7.60;7.50;;;21.10;99.90;;;;;;5070251;28;20489;-67
2023/09/12 08:29:58;;;;;;;7.67;7.57;;;21.20;99.90;;;;;;5083244;28;21307;-67
2023/09/12 08:32:26;;;;;;;8.10;8.00;;;21.30;99.90;;;;;;5076954;28;20458;-66
2023/09/12 08:34:54;;;;;;;7.90;7.80;;;21.70;99.90;;;;;;5071339;28;20528;-66
2023/09/12 08:37:21;;;;;;;8.40;8.30;;;22.00;99.90;;;;;;5084196;28;20454;-67
2023/09/12 08:39:48;;;;;;;8.20;8.10;;;22.10;99.90;;;;;;5080882;28;20459;-65
2023/09/12 08:42:17;;;;;;;7.97;7.87;;;22.10;99.90;;;;;;5083971;28;20458;-66
2023/09/12 08:44:44;;;;;;;9.33;9.13;;;22.50;99.90;;;;;;5085583;28;20454;-67
2023/09/12 08:47:12;;;;;;;9.63;9.43;;;22.50;99.90;;;;;;5084994;28;20452;-66
2023/09/12 08:49:40;;;;;;;9.20;9.00;;;22.70;99.90;;;;;;5070247;28;20911;-67
2023/09/12 08:52:08;;;;;;;9.40;9.20;;;22.90;99.90;;;;;;5074533;28;20787;-67
2023/09/12 08:54:35;;;;;;;9.57;9.37;;;23.10;99.90;;;;;;5076000;28;20466;-66
2023/09/12 08:57:05;;;;;;;8.83;8.67;;;23.10;99.90;;;;;;5079021;28;20454;-65
2023/09/12 08:59:33;;;;;;;8.60;8.50;;;23.30;99.90;;;;;;5078474;28;21260;-66
2023/09/12 09:02:01;;;;;;;8.20;8.10;;;23.40;99.90;;;;;;5071270;28;21291;-66
2023/09/12 09:04:30;;;;;;;8.30;8.20;;;23.40;99.90;;;;;;5076611;28;20487;-67
2023/09/12 09:07:00;;;;;;;8.97;8.77;;;23.30;99.90;;;;;;5081021;28;20547;-66
2023/09/12 09:09:29;;;;;;;9.30;9.10;;;23.40;99.90;;;;;;5082314;28;20459;-66
2023/09/12 09:11:55;;;;;;;9.10;8.90;;;23.30;99.90;;;;;;5066493;28;20986;-66
2023/09/12 09:14:22;;;;;;;8.60;8.50;;;23.10;99.90;;;;;;5075297;28;20463;-67
2023/09/12 09:16:50;;;;;;;8.60;8.50;;;23.30;99.90;;;;;;5080156;28;20513;-66
2023/09/12 09:19:18;;;;;;;9.50;9.30;;;23.60;99.90;;;;;;5077152;28;20565;-67
2023/09/12 09:21:45;;;;;;;10.10;9.90;;;23.70;99.90;;;;;;5079813;28;20841;-67
2023/09/12 09:24:15;;;;;;;10.10;9.90;;;23.80;99.90;;;;;;5082971;28;20457;-65
2023/09/12 09:26:45;;;;;;;9.87;9.67;;;24.00;99.90;;;;;;5081289;28;20469;-67
2023/09/12 09:29:16;;;;;;;10.30;10.10;;;24.40;99.90;;;;;;5078558;28;20506;-66
2023/09/12 09:31:44;;;;;;;10.33;10.13;;;24.50;99.90;;;;;;5077211;28;20581;-67
2023/09/12 09:34:13;;;;;;;11.07;10.77;;;24.50;99.90;;;;;;5079843;28;20455;-67
2023/09/12 09:36:43;;;;;;;10.30;10.10;;;24.50;99.90;;;;;;5076060;28;20462;-66
2023/09/12 09:39:10;;;;;;;11.50;11.20;;;24.60;99.90;;;;;;5084248;28;20469;-67
2023/09/12 09:41:38;;;;;;;11.50;11.20;;;25.10;99.90;;;;;;5088446;28;20463;-67
2023/09/12 09:44:08;;;;;;;12.00;11.70;;;25.90;99.90;;;;;;5084737;28;20493;-67
2023/09/12 09:46:36;;;;;;;13.30;12.90;;;27.00;99.90;;;;;;5083770;28;20815;-66
2023/09/12 09:49:03;;;;;;;13.53;13.13;;;27.30;99.90;;;;;;5075415;28;20462;-67
2023/09/12 09:51:32;;;;;;;13.77;13.37;;;27.10;99.90;;;;;;5077161;28;20494;-67
2023/09/12 09:54:00;;;;;;;13.97;13.57;;;27.30;99.90;;;;;;5071924;28;20553;-67
2023/09/12 09:56:27;;;;;;;14.30;13.80;;;27.60;99.90;;;;;;5076236;28;20453;-67
2023/09/12 09:58:56;;;;;;;13.90;13.50;;;28.40;99.90;;;;;;5073844;28;20459;-68
2023/09/12 10:01:28;;;;;;;14.80;14.30;;;28.40;99.90;;;;;;5070368;28;20981;-67
2023/09/12 10:03:59;;;;;;;14.60;14.10;;;28.60;99.90;;;;;;5088307;28;20485;-67
2023/09/12 10:06:28;;;;;;;14.30;13.80;;;28.00;99.90;;;;;;5079170;28;20553;-66
2023/09/12 10:08:56;;;;;;;14.53;14.03;;;27.50;99.90;;;;;;5086246;28;20864;-67
2023/09/12 10:11:26;;;;;;;14.50;14.00;;;27.30;99.90;;;;;;5088592;28;20498;-68
2023/09/12 10:13:54;;;;;;;14.73;14.23;;;27.30;99.90;;;;;;5081905;28;20466;-67
2023/09/12 10:16:29;;;;;;;14.57;14.07;;;27.30;99.90;;;;;;5077111;28;20465;-67
2023/09/12 10:19:00;;;;;;;14.70;14.20;;;27.10;99.90;;;;;;5080944;28;20451;-67
2023/09/12 10:21:31;;;;;;;13.90;13.50;;;27.30;99.90;;;;;;5081424;28;21016;-66
2023/09/12 10:24:00;;;;;;;14.50;14.00;;;27.50;99.90;;;;;;5074149;28;20501;-67
2023/09/12 10:26:28;;;;;;;15.27;14.77;;;27.90;99.90;;;;;;5088184;28;20458;-67
2023/09/12 10:28:56;;;;;;;14.90;14.40;;;27.90;99.90;;;;;;5088594;28;21145;-66
2023/09/12 10:31:24;;;;;;;14.50;14.00;;;28.00;99.90;;;;;;5084289;28;20584;-66
2023/09/12 10:33:53;;;;;;;14.63;14.13;;;28.00;99.90;;;;;;5084231;28;20458;-66
2023/09/12 10:36:23;;;;;;;14.83;14.33;;;27.90;99.90;;;;;;5071729;28;20463;-67
2023/09/12 10:38:51;;;;;;;15.57;15.07;;;27.40;99.90;;;;;;5078111;28;20462;-66
2023/09/12 10:41:21;;;;;;;15.20;14.70;;;27.20;99.90;;;;;;5072976;28;20466;-67
2023/09/12 10:43:52;;;;;;;15.07;14.57;;;26.80;99.90;;;;;;5087975;28;20454;-66
2023/09/12 10:46:19;;;;;;;14.40;13.90;;;26.60;99.90;;;;;;5078881;28;20501;-67
2023/09/12 10:48:46;;;;;;;14.80;14.30;;;26.40;99.90;;;;;;5083419;28;20541;-67
2023/09/12 10:51:15;;;;;;;14.53;14.03;;;26.50;99.90;;;;;;5077142;28;21780;-68
2023/09/12 10:53:49;;;;;;;14.40;13.90;;;26.90;99.90;;;;;;5073496;28;20465;-68
2023/09/12 10:56:19;;;;;;;14.70;14.20;;;27.20;99.90;;;;;;5084696;28;20502;-68
2023/09/12 10:59:14;;;;;;;14.70;14.20;;;27.30;99.90;;;;;;5081506;28;20546;-68
2023/09/12 11:01:42;;;;;;;14.10;13.70;;;27.80;99.90;;;;;;5086303;28;20477;-68
2023/09/12 11:04:37;;;;;;;14.10;13.60;;;28.40;99.90;;;;;;5081580;28;20972;-68
2023/09/12 11:07:33;;;;;;;14.97;14.47;;;28.60;99.90;;;;;;5085161;28;21010;-68
2023/09/12 11:10:20;;;;;;;14.97;14.47;;;28.70;99.90;;;;;;5069499;28;20823;-67
2023/09/12 11:12:49;;;;;;;14.60;14.10;;;28.90;99.90;;;;;;5074550;28;20913;-69
2023/09/12 11:15:17;;;;;;;15.60;15.00;;;29.20;99.90;;;;;;5077760;28;20548;-68
2023/09/12 11:17:45;;;;;;;14.50;14.00;;;29.40;99.90;;;;;;5073829;28;20463;-67
2023/09/12 11:20:14;;;;;;;14.77;14.27;;;28.60;99.90;;;;;;5073511;28;20506;-69
2023/09/12 11:22:44;;;;;;;14.70;14.20;;;28.10;99.90;;;;;;5078007;28;21130;-69
2023/09/12 11:25:22;;;;;;;15.13;14.63;;;28.50;99.90;;;;;;5086620;28;20819;-69
2023/09/12 11:28:04;;;;;;;15.27;14.77;;;29.60;99.90;;;;;;5083435;28;20477;-68
2023/09/12 11:30:32;;;;;;;15.53;14.93;;;30.70;99.90;;;;;;5084032;28;20549;-68
2023/09/12 11:33:00;;;;;;;15.87;15.27;;;31.50;99.90;;;;;;5078183;28;20456;-67
2023/09/12 11:35:28;;;;;;;15.30;14.80;;;31.80;99.90;;;;;;5082583;28;20561;-68
2023/09/12 11:37:58;;;;;;;15.53;15.00;;;31.90;99.90;;;;;;5076331;28;20474;-68
2023/09/12 11:40:26;;;;;;;15.30;14.80;;;31.20;99.90;;;;;;5084346;28;20696;-67
2023/09/12 11:42:53;;;;;;;15.73;15.13;;;30.60;99.90;;;;;;5077589;28;20464;-66
2023/09/12 11:45:23;;;;;;;15.77;15.17;;;30.20;99.90;;;;;;5075780;28;20831;-66
2023/09/12 11:47:50;;;;;;;15.57;15.07;;;30.00;99.90;;;;;;5073820;28;20543;-68
2023/09/12 11:50:30;;;;;;;15.63;15.03;;;30.40;99.90;;;;;;5080074;28;20462;-67
2023/09/12 11:53:04;;;;;;;15.50;15.00;;;30.50;99.90;;;;;;5079910;28;21020;-67
2023/09/12 11:55:33;;;;;;;15.03;14.53;;;31.70;99.90;;;;;;5068989;28;20552;-67
2023/09/12 11:58:00;;;;;;;15.53;15.03;;;32.70;99.90;;;;;;5085890;28;20534;-68
2023/09/12 12:00:27;;;;;;;15.13;14.63;;;32.90;99.90;;;;;;5072288;28;20462;-67
2023/09/12 12:02:54;;;;;;;16.27;15.70;;;32.60;99.90;;;;;;5082712;28;20477;-66
2023/09/12 12:05:22;;;;;;;16.00;15.50;;;32.30;99.90;;;;;;5085047;28;20486;-68
2023/09/12 12:07:50;;;;;;;15.70;15.20;;;31.70;99.90;;;;;;5074609;28;20835;-66
2023/09/12 12:10:19;;;;;;;15.40;14.90;;;31.60;99.90;;;;;;5079014;28;20454;-66
2023/09/12 12:12:47;;;;;;;14.97;14.47;;;31.50;99.90;;;;;;5079903;28;20486;-68
2023/09/12 12:15:14;;;;;;;15.67;15.17;;;32.20;99.90;;;;;;5076159;28;20461;-67
2023/09/12 12:17:42;;;;;;;15.60;15.10;;;32.60;99.90;;;;;;5075848;28;20481;-67
2023/09/12 12:20:11;;;;;;;15.30;14.80;;;32.80;99.90;;;;;;5078466;28;20949;-68
2023/09/12 12:22:39;;;;;;;15.10;14.60;;;33.20;99.90;;;;;;5077775;28;20459;-67
2023/09/12 12:25:09;;;;;;;16.10;15.60;;;33.30;99.90;;;;;;5068285;28;20470;-67
2023/09/12 12:27:39;;;;;;;15.80;15.30;;;33.50;99.90;;;;;;5067886;28;20474;-68
2023/09/12 12:30:09;;;;;;;15.60;15.10;;;33.30;99.90;;;;;;5077675;28;20749;-67
2023/09/12 12:32:37;;;;;;;14.87;14.37;;;32.30;99.90;;;;;;5081686;28;20977;-68
2023/09/12 12:35:07;;;;;;;15.20;14.70;;;32.00;99.90;;;;;;5082041;28;20882;-68
2023/09/12 12:37:34;;;;;;;15.20;14.70;;;31.00;99.90;;;;;;5077845;28;20465;-67
2023/09/12 12:40:03;;;;;;;14.77;14.27;;;31.40;99.90;;;;;;5074660;28;20462;-68